sensor_id;sensor_type;location;lat;lon;timestamp;P1;durP1;ratioP1;P2;durP2;ratioP2
54875;SDS011;40764;48.472;8.166;2023-06-14T00:04:36;12.73;;;4.40;;
54875;SDS011;40764;48.472;8.166;2023-06-14T00:10:38;17.20;;;4.65;;
54875;SDS011;40764;48.472;8.166;2023-06-14T00:16:41;8.15;;;4.40;;
54875;SDS011;40764;48.472;8.166;2023-06-14T00:22:42;9.25;;;4.25;;
54875;SDS011;40764;48.472;8.166;2023-06-14T00:28:42;11.85;;;4.60;;
54875;SDS011;40764;48.472;8.166;2023-06-14T00:34:43;13.53;;;3.67;;
54875;SDS011;40764;48.472;8.166;2023-06-14T00:40:49;7.20;;;3.92;;
54875;SDS011;40764;48.472;8.166;2023-06-14T00:47:00;8.32;;;4.32;;
54875;SDS011;40764;48.472;8.166;2023-06-14T00:53:00;11.57;;;4.22;;
54875;SDS011;40764;48.472;8.166;2023-06-14T00:59:05;6.93;;;4.07;;
54875;SDS011;40764;48.472;8.166;2023-06-14T01:05:06;11.90;;;4.00;;
54875;SDS011;40764;48.472;8.166;2023-06-14T01:11:12;6.80;;;3.50;;
54875;SDS011;40764;48.472;8.166;2023-06-14T01:17:37;7.20;;;3.75;;
54875;SDS011;40764;48.472;8.166;2023-06-14T01:23:41;9.35;;;4.40;;
54875;SDS011;40764;48.472;8.166;2023-06-14T01:29:42;9.40;;;5.10;;
54875;SDS011;40764;48.472;8.166;2023-06-14T01:35:47;10.70;;;5.90;;
54875;SDS011;40764;48.472;8.166;2023-06-14T01:41:50;8.60;;;4.05;;
54875;SDS011;40764;48.472;8.166;2023-06-14T01:47:52;5.37;;;3.50;;
54875;SDS011;40764;48.472;8.166;2023-06-14T01:53:52;11.13;;;4.20;;
54875;SDS011;40764;48.472;8.166;2023-06-14T01:59:53;11.87;;;3.93;;
54875;SDS011;40764;48.472;8.166;2023-06-14T02:05:53;8.43;;;4.53;;
54875;SDS011;40764;48.472;8.166;2023-06-14T02:18:25;7.30;;;4.47;;
54875;SDS011;40764;48.472;8.166;2023-06-14T02:24:26;10.00;;;5.35;;
54875;SDS011;40764;48.472;8.166;2023-06-14T02:30:26;5.25;;;3.83;;
54875;SDS011;40764;48.472;8.166;2023-06-14T02:36:26;8.48;;;4.15;;
54875;SDS011;40764;48.472;8.166;2023-06-14T02:42:29;8.85;;;4.50;;
54875;SDS011;40764;48.472;8.166;2023-06-14T02:48:30;8.18;;;4.32;;
54875;SDS011;40764;48.472;8.166;2023-06-14T02:54:30;12.23;;;5.22;;
54875;SDS011;40764;48.472;8.166;2023-06-14T03:00:31;9.03;;;5.17;;
54875;SDS011;40764;48.472;8.166;2023-06-14T03:06:31;7.03;;;4.22;;
54875;SDS011;40764;48.472;8.166;2023-06-14T03:12:32;9.10;;;4.30;;
54875;SDS011;40764;48.472;8.166;2023-06-14T03:18:32;14.40;;;4.18;;
54875;SDS011;40764;48.472;8.166;2023-06-14T03:24:35;7.82;;;4.15;;
54875;SDS011;40764;48.472;8.166;2023-06-14T03:30:36;13.53;;;4.33;;
54875;SDS011;40764;48.472;8.166;2023-06-14T03:36:36;7.70;;;4.22;;
54875;SDS011;40764;48.472;8.166;2023-06-14T03:42:37;15.50;;;4.93;;
54875;SDS011;40764;48.472;8.166;2023-06-14T04:09:38;6.88;;;4.15;;
54875;SDS011;40764;48.472;8.166;2023-06-14T04:15:39;7.32;;;4.47;;
54875;SDS011;40764;48.472;8.166;2023-06-14T04:21:42;8.38;;;4.60;;
54875;SDS011;40764;48.472;8.166;2023-06-14T04:27:42;7.50;;;5.20;;
54875;SDS011;40764;48.472;8.166;2023-06-14T04:33:43;9.77;;;4.82;;
54875;SDS011;40764;48.472;8.166;2023-06-14T04:39:43;15.70;;;5.70;;
54875;SDS011;40764;48.472;8.166;2023-06-14T04:45:44;10.63;;;5.35;;
54875;SDS011;40764;48.472;8.166;2023-06-14T04:51:46;8.98;;;4.63;;
54875;SDS011;40764;48.472;8.166;2023-06-14T04:57:50;12.00;;;4.97;;
54875;SDS011;40764;48.472;8.166;2023-06-14T05:09:53;26.85;;;9.57;;
54875;SDS011;40764;48.472;8.166;2023-06-14T05:15:53;30.23;;;12.35;;
54875;SDS011;40764;48.472;8.166;2023-06-14T05:21:53;22.83;;;10.02;;
54875;SDS011;40764;48.472;8.166;2023-06-14T05:27:54;19.13;;;8.88;;
54875;SDS011;40764;48.472;8.166;2023-06-14T05:33:54;19.67;;;9.63;;
54875;SDS011;40764;48.472;8.166;2023-06-14T05:39:55;16.98;;;7.90;;
54875;SDS011;40764;48.472;8.166;2023-06-14T05:45:55;17.00;;;6.85;;
54875;SDS011;40764;48.472;8.166;2023-06-14T05:51:55;13.80;;;6.07;;
54875;SDS011;40764;48.472;8.166;2023-06-14T05:57:56;14.57;;;5.38;;
54875;SDS011;40764;48.472;8.166;2023-06-14T06:03:56;10.90;;;5.83;;
54875;SDS011;40764;48.472;8.166;2023-06-14T06:09:57;20.52;;;6.68;;
54875;SDS011;40764;48.472;8.166;2023-06-14T06:15:57;28.00;;;9.98;;
54875;SDS011;40764;48.472;8.166;2023-06-14T06:21:57;25.05;;;7.80;;
54875;SDS011;40764;48.472;8.166;2023-06-14T06:27:58;11.02;;;4.97;;
54875;SDS011;40764;48.472;8.166;2023-06-14T06:33:58;16.20;;;6.25;;
54875;SDS011;40764;48.472;8.166;2023-06-14T06:39:58;8.13;;;5.57;;
54875;SDS011;40764;48.472;8.166;2023-06-14T06:45:59;9.48;;;4.63;;
54875;SDS011;40764;48.472;8.166;2023-06-14T06:52:00;13.75;;;5.18;;
54875;SDS011;40764;48.472;8.166;2023-06-14T06:58:04;9.80;;;4.57;;
54875;SDS011;40764;48.472;8.166;2023-06-14T07:04:05;18.17;;;6.43;;
54875;SDS011;40764;48.472;8.166;2023-06-14T07:10:06;19.93;;;6.43;;
54875;SDS011;40764;48.472;8.166;2023-06-14T07:16:07;21.13;;;6.15;;
54875;SDS011;40764;48.472;8.166;2023-06-14T07:22:07;10.52;;;5.30;;
54875;SDS011;40764;48.472;8.166;2023-06-14T07:28:08;21.33;;;8.98;;
54875;SDS011;40764;48.472;8.166;2023-06-14T07:34:08;19.07;;;7.37;;
54875;SDS011;40764;48.472;8.166;2023-06-14T07:40:09;10.68;;;4.65;;
54875;SDS011;40764;48.472;8.166;2023-06-14T07:46:10;12.60;;;4.40;;
54875;SDS011;40764;48.472;8.166;2023-06-14T07:52:10;10.27;;;4.13;;
54875;SDS011;40764;48.472;8.166;2023-06-14T07:58:11;5.47;;;3.13;;
54875;SDS011;40764;48.472;8.166;2023-06-14T08:04:12;5.40;;;3.43;;
54875;SDS011;40764;48.472;8.166;2023-06-14T08:10:12;7.37;;;3.23;;
54875;SDS011;40764;48.472;8.166;2023-06-14T08:16:13;5.37;;;3.27;;
54875;SDS011;40764;48.472;8.166;2023-06-14T08:22:13;10.97;;;3.93;;
54875;SDS011;40764;48.472;8.166;2023-06-14T08:28:13;9.48;;;3.33;;
54875;SDS011;40764;48.472;8.166;2023-06-14T08:34:14;7.15;;;3.15;;
54875;SDS011;40764;48.472;8.166;2023-06-14T08:46:21;9.35;;;4.03;;
54875;SDS011;40764;48.472;8.166;2023-06-14T08:52:27;12.40;;;3.88;;
54875;SDS011;40764;48.472;8.166;2023-06-14T08:58:33;7.82;;;4.70;;
54875;SDS011;40764;48.472;8.166;2023-06-14T09:04:34;16.87;;;4.43;;
54875;SDS011;40764;48.472;8.166;2023-06-14T09:10:35;10.65;;;5.07;;
54875;SDS011;40764;48.472;8.166;2023-06-14T09:16:37;8.57;;;4.30;;
54875;SDS011;40764;48.472;8.166;2023-06-14T09:22:37;21.10;;;5.03;;
54875;SDS011;40764;48.472;8.166;2023-06-14T09:28:42;5.23;;;3.97;;
54875;SDS011;40764;48.472;8.166;2023-06-14T09:34:46;7.40;;;4.35;;
54875;SDS011;40764;48.472;8.166;2023-06-14T09:40:47;7.85;;;4.50;;
54875;SDS011;40764;48.472;8.166;2023-06-14T09:46:49;9.48;;;4.95;;
54875;SDS011;40764;48.472;8.166;2023-06-14T09:52:51;13.37;;;4.63;;
54875;SDS011;40764;48.472;8.166;2023-06-14T09:58:54;8.88;;;4.57;;
54875;SDS011;40764;48.472;8.166;2023-06-14T10:05:15;13.35;;;5.32;;
54875;SDS011;40764;48.472;8.166;2023-06-14T10:11:17;6.57;;;4.57;;
54875;SDS011;40764;48.472;8.166;2023-06-14T10:17:40;15.20;;;5.17;;
54875;SDS011;40764;48.472;8.166;2023-06-14T10:23:55;11.88;;;4.75;;
54875;SDS011;40764;48.472;8.166;2023-06-14T10:30:03;12.43;;;4.85;;
54875;SDS011;40764;48.472;8.166;2023-06-14T10:36:09;13.93;;;4.82;;
54875;SDS011;40764;48.472;8.166;2023-06-14T10:42:10;12.73;;;4.65;;
54875;SDS011;40764;48.472;8.166;2023-06-14T10:54:29;8.88;;;4.57;;
54875;SDS011;40764;48.472;8.166;2023-06-14T11:00:30;8.15;;;4.88;;
54875;SDS011;40764;48.472;8.166;2023-06-14T11:06:48;13.88;;;4.70;;
54875;SDS011;40764;48.472;8.166;2023-06-14T11:12:52;12.68;;;5.30;;
54875;SDS011;40764;48.472;8.166;2023-06-14T11:18:54;7.40;;;4.90;;
54875;SDS011;40764;48.472;8.166;2023-06-14T11:24:55;7.30;;;4.70;;
54875;SDS011;40764;48.472;8.166;2023-06-14T11:31:00;14.90;;;4.85;;
54875;SDS011;40764;48.472;8.166;2023-06-14T11:37:02;6.20;;;4.63;;
54875;SDS011;40764;48.472;8.166;2023-06-14T11:43:02;5.90;;;4.30;;
54875;SDS011;40764;48.472;8.166;2023-06-14T11:49:02;8.45;;;4.25;;
54875;SDS011;40764;48.472;8.166;2023-06-14T11:55:04;10.30;;;4.78;;
54875;SDS011;40764;48.472;8.166;2023-06-14T12:01:06;16.77;;;4.43;;
54875;SDS011;40764;48.472;8.166;2023-06-14T12:07:14;7.73;;;4.53;;
54875;SDS011;40764;48.472;8.166;2023-06-14T12:13:16;10.20;;;4.30;;
54875;SDS011;40764;48.472;8.166;2023-06-14T12:19:17;9.02;;;3.63;;
54875;SDS011;40764;48.472;8.166;2023-06-14T12:25:24;5.60;;;4.10;;
54875;SDS011;40764;48.472;8.166;2023-06-14T12:31:27;11.80;;;5.28;;
54875;SDS011;40764;48.472;8.166;2023-06-14T12:37:27;5.97;;;3.60;;
54875;SDS011;40764;48.472;8.166;2023-06-14T12:43:27;11.75;;;5.15;;
54875;SDS011;40764;48.472;8.166;2023-06-14T12:49:28;10.38;;;4.82;;
54875;SDS011;40764;48.472;8.166;2023-06-14T12:55:28;12.73;;;4.88;;
54875;SDS011;40764;48.472;8.166;2023-06-14T13:01:29;7.17;;;4.67;;
54875;SDS011;40764;48.472;8.166;2023-06-14T13:07:29;7.53;;;4.32;;
54875;SDS011;40764;48.472;8.166;2023-06-14T13:13:30;10.68;;;3.80;;
54875;SDS011;40764;48.472;8.166;2023-06-14T13:19:30;5.43;;;4.30;;
54875;SDS011;40764;48.472;8.166;2023-06-14T13:25:31;11.52;;;3.97;;
54875;SDS011;40764;48.472;8.166;2023-06-14T13:31:31;5.88;;;3.47;;
54875;SDS011;40764;48.472;8.166;2023-06-14T13:37:32;9.82;;;4.32;;
54875;SDS011;40764;48.472;8.166;2023-06-14T13:43:32;6.88;;;4.05;;
54875;SDS011;40764;48.472;8.166;2023-06-14T13:49:33;11.30;;;4.03;;
54875;SDS011;40764;48.472;8.166;2023-06-14T13:55:35;13.00;;;4.70;;
54875;SDS011;40764;48.472;8.166;2023-06-14T14:01:35;8.05;;;4.78;;
54875;SDS011;40764;48.472;8.166;2023-06-14T14:07:35;13.63;;;4.30;;
54875;SDS011;40764;48.472;8.166;2023-06-14T14:13:36;7.10;;;4.57;;
54875;SDS011;40764;48.472;8.166;2023-06-14T14:19:36;7.63;;;3.63;;
54875;SDS011;40764;48.472;8.166;2023-06-14T14:25:37;9.63;;;4.80;;
54875;SDS011;40764;48.472;8.166;2023-06-14T14:31:37;9.18;;;4.60;;
54875;SDS011;40764;48.472;8.166;2023-06-14T14:37:37;7.30;;;4.68;;
54875;SDS011;40764;48.472;8.166;2023-06-14T14:43:38;7.32;;;4.50;;
54875;SDS011;40764;48.472;8.166;2023-06-14T14:49:38;8.60;;;4.25;;
54875;SDS011;40764;48.472;8.166;2023-06-14T14:55:39;9.07;;;3.93;;
54875;SDS011;40764;48.472;8.166;2023-06-14T15:01:41;9.00;;;5.00;;
54875;SDS011;40764;48.472;8.166;2023-06-14T15:07:41;6.28;;;3.95;;
54875;SDS011;40764;48.472;8.166;2023-06-14T15:19:42;13.52;;;4.18;;
54875;SDS011;40764;48.472;8.166;2023-06-14T15:25:42;7.25;;;4.50;;
54875;SDS011;40764;48.472;8.166;2023-06-14T15:31:42;5.75;;;4.20;;
54875;SDS011;40764;48.472;8.166;2023-06-14T15:37:43;6.23;;;4.07;;
54875;SDS011;40764;48.472;8.166;2023-06-14T15:49:44;13.20;;;4.50;;
54875;SDS011;40764;48.472;8.166;2023-06-14T15:55:44;7.75;;;4.43;;
54875;SDS011;40764;48.472;8.166;2023-06-14T16:01:44;7.10;;;4.38;;
54875;SDS011;40764;48.472;8.166;2023-06-14T16:13:45;7.18;;;3.63;;
54875;SDS011;40764;48.472;8.166;2023-06-14T16:25:45;8.55;;;3.67;;
54875;SDS011;40764;48.472;8.166;2023-06-14T16:37:46;12.98;;;4.07;;
54875;SDS011;40764;48.472;8.166;2023-06-14T16:43:46;7.07;;;3.93;;
54875;SDS011;40764;48.472;8.166;2023-06-14T16:49:47;6.43;;;3.60;;
54875;SDS011;40764;48.472;8.166;2023-06-14T16:55:48;8.77;;;4.07;;
54875;SDS011;40764;48.472;8.166;2023-06-14T17:01:51;6.27;;;3.70;;
54875;SDS011;40764;48.472;8.166;2023-06-14T17:07:55;6.10;;;3.67;;
54875;SDS011;40764;48.472;8.166;2023-06-14T17:13:55;5.18;;;3.75;;
54875;SDS011;40764;48.472;8.166;2023-06-14T17:19:55;5.95;;;3.22;;
54875;SDS011;40764;48.472;8.166;2023-06-14T17:25:56;3.90;;;3.30;;
54875;SDS011;40764;48.472;8.166;2023-06-14T17:31:56;6.87;;;3.17;;
54875;SDS011;40764;48.472;8.166;2023-06-14T17:37:56;5.60;;;3.40;;
54875;SDS011;40764;48.472;8.166;2023-06-14T17:43:57;4.83;;;3.67;;
54875;SDS011;40764;48.472;8.166;2023-06-14T17:49:57;11.43;;;3.00;;
54875;SDS011;40764;48.472;8.166;2023-06-14T17:55:59;4.93;;;2.92;;
54875;SDS011;40764;48.472;8.166;2023-06-14T18:02:03;9.38;;;3.42;;
54875;SDS011;40764;48.472;8.166;2023-06-14T18:08:03;4.93;;;3.55;;
54875;SDS011;40764;48.472;8.166;2023-06-14T18:14:06;15.48;;;3.85;;
54875;SDS011;40764;48.472;8.166;2023-06-14T18:20:06;6.83;;;3.77;;
54875;SDS011;40764;48.472;8.166;2023-06-14T18:26:07;8.40;;;3.38;;
54875;SDS011;40764;48.472;8.166;2023-06-14T18:32:08;9.23;;;3.42;;
54875;SDS011;40764;48.472;8.166;2023-06-14T18:38:08;6.93;;;3.35;;
54875;SDS011;40764;48.472;8.166;2023-06-14T18:44:08;6.53;;;3.43;;
54875;SDS011;40764;48.472;8.166;2023-06-14T18:50:09;5.27;;;3.37;;
54875;SDS011;40764;48.472;8.166;2023-06-14T19:02:10;8.27;;;3.20;;
54875;SDS011;40764;48.472;8.166;2023-06-14T19:08:10;7.35;;;3.63;;
54875;SDS011;40764;48.472;8.166;2023-06-14T19:14:11;4.67;;;3.30;;
54875;SDS011;40764;48.472;8.166;2023-06-14T19:20:11;5.80;;;3.33;;
54875;SDS011;40764;48.472;8.166;2023-06-14T19:26:11;8.33;;;3.70;;
54875;SDS011;40764;48.472;8.166;2023-06-14T19:32:12;6.57;;;3.53;;
54875;SDS011;40764;48.472;8.166;2023-06-14T19:38:12;5.82;;;3.63;;
54875;SDS011;40764;48.472;8.166;2023-06-14T19:44:13;6.63;;;3.77;;
54875;SDS011;40764;48.472;8.166;2023-06-14T19:50:13;5.10;;;4.23;;
54875;SDS011;40764;48.472;8.166;2023-06-14T19:56:13;11.27;;;4.18;;
54875;SDS011;40764;48.472;8.166;2023-06-14T20:02:14;7.07;;;4.00;;
54875;SDS011;40764;48.472;8.166;2023-06-14T20:08:14;5.63;;;3.93;;
54875;SDS011;40764;48.472;8.166;2023-06-14T20:14:22;6.43;;;3.50;;
54875;SDS011;40764;48.472;8.166;2023-06-14T20:20:22;6.23;;;3.90;;
54875;SDS011;40764;48.472;8.166;2023-06-14T20:26:22;6.03;;;3.90;;
54875;SDS011;40764;48.472;8.166;2023-06-14T20:32:23;7.00;;;4.23;;
54875;SDS011;40764;48.472;8.166;2023-06-14T20:38:23;8.40;;;3.97;;
54875;SDS011;40764;48.472;8.166;2023-06-14T20:44:23;7.25;;;4.22;;
54875;SDS011;40764;48.472;8.166;2023-06-14T20:50:29;8.57;;;4.22;;
54875;SDS011;40764;48.472;8.166;2023-06-14T20:56:29;6.00;;;3.97;;
54875;SDS011;40764;48.472;8.166;2023-06-14T21:02:30;11.13;;;4.93;;
54875;SDS011;40764;48.472;8.166;2023-06-14T21:08:30;7.33;;;4.73;;
54875;SDS011;40764;48.472;8.166;2023-06-14T21:14:31;7.20;;;4.20;;
54875;SDS011;40764;48.472;8.166;2023-06-14T21:20:31;6.43;;;4.37;;
54875;SDS011;40764;48.472;8.166;2023-06-14T21:26:31;11.07;;;4.43;;
54875;SDS011;40764;48.472;8.166;2023-06-14T21:32:34;9.30;;;4.47;;
54875;SDS011;40764;48.472;8.166;2023-06-14T21:38:39;12.13;;;4.60;;
54875;SDS011;40764;48.472;8.166;2023-06-14T21:44:40;7.22;;;5.10;;
54875;SDS011;40764;48.472;8.166;2023-06-14T21:50:41;16.77;;;4.78;;
54875;SDS011;40764;48.472;8.166;2023-06-14T21:56:42;15.70;;;4.70;;
54875;SDS011;40764;48.472;8.166;2023-06-14T22:02:42;8.33;;;4.57;;
54875;SDS011;40764;48.472;8.166;2023-06-14T22:08:42;7.15;;;4.53;;
54875;SDS011;40764;48.472;8.166;2023-06-14T22:14:44;10.98;;;4.60;;
54875;SDS011;40764;48.472;8.166;2023-06-14T22:20:48;7.18;;;5.00;;
54875;SDS011;40764;48.472;8.166;2023-06-14T22:26:49;9.57;;;4.30;;
54875;SDS011;40764;48.472;8.166;2023-06-14T22:32:49;11.48;;;5.70;;
54875;SDS011;40764;48.472;8.166;2023-06-14T22:38:53;7.88;;;4.57;;
54875;SDS011;40764;48.472;8.166;2023-06-14T22:44:53;7.07;;;5.07;;
54875;SDS011;40764;48.472;8.166;2023-06-14T22:50:53;13.98;;;4.85;;
54875;SDS011;40764;48.472;8.166;2023-06-14T22:56:54;11.23;;;4.57;;
54875;SDS011;40764;48.472;8.166;2023-06-14T23:02:56;7.20;;;4.88;;
54875;SDS011;40764;48.472;8.166;2023-06-14T23:08:57;14.27;;;5.25;;
54875;SDS011;40764;48.472;8.166;2023-06-14T23:15:00;12.13;;;5.07;;
54875;SDS011;40764;48.472;8.166;2023-06-14T23:21:04;9.45;;;5.13;;
54875;SDS011;40764;48.472;8.166;2023-06-14T23:27:05;9.17;;;5.00;;
54875;SDS011;40764;48.472;8.166;2023-06-14T23:33:06;10.80;;;4.53;;
54875;SDS011;40764;48.472;8.166;2023-06-14T23:39:07;10.65;;;5.05;;
54875;SDS011;40764;48.472;8.166;2023-06-14T23:45:07;11.63;;;5.57;;
54875;SDS011;40764;48.472;8.166;2023-06-14T23:51:09;7.25;;;4.50;;
54875;SDS011;40764;48.472;8.166;2023-06-14T23:57:09;8.43;;;4.97;;
